Flight Track Log - Related Links

Times and Time Zones

All times are in EDT time to prevent confusion due to time zone crossing. See the AFR1910 flight status page for this flight to view local times or setup timezone preferences in your user account.

Time Position Orientation Groundspeed Altitude Reporting Facility
EDT Latitude Longitude Course Direction KTS MPH feet Rate Location/Type
Fri 02:18:00 PM 49.1275 3.8410 82° East  Level Estimated
Fri 02:19:00 PM 49.1357 3.9406 83° East  Level Estimated
Fri 02:20:00 PM 49.1439 4.0401 83° East  Level Estimated
Fri 02:21:00 PM 49.1519 4.1397 83° East  Level Estimated
Fri 02:22:00 PM 49.1599 4.2394 83° East  Level Estimated
Fri 02:23:00 PM 49.1678 4.3391 83° East  Level Estimated
Fri 02:24:00 PM 49.1756 4.4388 83° East  Level Estimated
Fri 02:25:00 PM 49.1833 4.5385 83° East  Level Estimated
Fri 02:26:00 PM 49.1909 4.6383 83° East  Level Estimated
Fri 02:27:00 PM 49.1985 4.7381 83° East  Level Estimated
Fri 02:28:00 PM 49.2059 4.8379 83° East  Level Estimated
Fri 02:29:00 PM 49.2133 4.9378 84° East  Level Estimated
Fri 02:30:00 PM 49.2206 5.0377 84° East  Level Estimated
Fri 02:31:00 PM 49.2278 5.1376 84° East  Level Estimated
Fri 02:32:00 PM 49.2349 5.2375 84° East  Level Estimated
Fri 02:33:00 PM 49.2419 5.3375 84° East  Level Estimated
Fri 02:34:00 PM 49.2489 5.4375 84° East  Level Estimated
Fri 02:35:00 PM 49.2557 5.5376 84° East  Level Estimated
Fri 02:36:00 PM 49.2625 5.6376 84° East  Level Estimated
Fri 02:37:00 PM 49.2692 5.7377 84° East  Level Estimated
Fri 02:38:00 PM 49.2758 5.8378 84° East  Level Estimated
Fri 02:39:00 PM 49.2833 5.9545 84° East  Level Estimated
Fri 02:40:00 PM 49.2908 6.0711 84° East  Level Estimated
Fri 02:41:00 PM 49.2981 6.1878 84° East  Level Estimated
Fri 02:42:00 PM 49.3053 6.3045 85° East  Level Estimated
Fri 02:43:00 PM 49.3124 6.4212 85° East  Level Estimated
Fri 02:44:00 PM 49.3194 6.5380 85° East  Level Estimated
Fri 02:45:00 PM 49.3263 6.6548 85° East  Level Estimated
Fri 02:46:00 PM 49.3330 6.7717 85° East  Level Estimated
Fri 02:47:00 PM 49.3396 6.8885 85° East  Level Estimated
Fri 02:48:00 PM 49.3461 7.0055 85° East  Level Estimated
Fri 02:49:00 PM 49.3525 7.1224 85° East  Level Estimated
Fri 02:50:00 PM 49.3588 7.2394 85° East  Level Estimated
Fri 02:51:00 PM 49.3650 7.3564 85° East  Level Estimated
Fri 02:52:00 PM 49.3710 7.4734 85° East  Level Estimated
Fri 02:53:00 PM 49.3769 7.5905 86° East  Level Estimated
Fri 02:54:00 PM 49.3827 7.7075 86° East  Level Estimated
Fri 02:55:00 PM 49.3881 7.8171 86° East  Level Estimated
Fri 02:56:00 PM 49.3933 7.9268 86° East  Level Estimated
Fri 02:57:00 PM 49.3984 8.0364 86° East  Level Estimated
Fri 02:58:00 PM 49.4034 8.1461 86° East  Level Estimated
Fri 02:59:00 PM 49.4083 8.2558 86° East  Level Estimated
Fri 03:00:00 PM 49.4131 8.3655 86° East  Level Estimated
Fri 03:01:00 PM 49.4178 8.4753 86° East  Level Estimated
Fri 03:02:00 PM 49.4224 8.5850 86° East  Level Estimated
Fri 03:03:00 PM 49.4269 8.6948 86° East  Level Estimated
Fri 03:04:00 PM 49.4313 8.8046 86° East  Level Estimated
Fri 03:05:00 PM 49.4356 8.9144 87° East  Level Estimated
Fri 03:06:00 PM 49.4397 9.0243 87° East  Level Estimated
Fri 03:07:00 PM 49.4438 9.1341 87° East  Level Estimated
Fri 03:08:00 PM 49.4478 9.2440 87° East  Level Estimated
Fri 03:09:00 PM 49.4517 9.3539 87° East  Level Estimated
Fri 03:10:00 PM 49.4554 9.4638 87° East  Level Estimated
Fri 03:11:00 PM 49.4591 9.5737 87° East  Level Estimated
Fri 03:12:00 PM 49.4626 9.6837 87° East  Level Estimated
Fri 03:13:00 PM 49.4661 9.7936 87° East  Level Estimated
Fri 03:14:00 PM 49.4694 9.9036 87° East  Level Estimated
Fri 03:15:00 PM 49.4727 10.0136 87° East  Level Estimated
Fri 03:16:00 PM 49.4758 10.1236 87° East  Level Estimated
Fri 03:17:00 PM 49.4788 10.2336 88° East  Level Estimated
Fri 03:18:00 PM 49.4818 10.3436 88° East  Level Estimated
Fri 03:19:00 PM 49.4846 10.4537 88° East  Level Estimated
Fri 03:20:00 PM 49.4873 10.5637 88° East  Level Estimated
Fri 03:21:00 PM 49.4899 10.6738 88° East  Level Estimated
Fri 03:22:00 PM 49.4925 10.7839 88° East  Level Estimated
Fri 03:23:00 PM 49.4949 10.8940 88° East  Level Estimated
Fri 03:24:00 PM 49.4972 11.0070 88° East  Level Estimated
Fri 03:25:00 PM 49.4986 11.0781 88° East  Level Estimated
Fri 03:26:00 PM 49.4986 11.0781 327° Northwest  Level Estimated
Fri 03:27:00 PM 49.4986 11.0781 327° Northwest  Level Estimated
Fri 03:28:00 PM 49.4986 11.0781 327° Northwest  Level Estimated
Fri 03:29:00 PM 49.4986 11.0781 327° Northwest  Level Estimated

Login

Don't have an account? Register now (free) for customized features, flight alerts, and more!